Colorado AWOS List, Phone Numbers, Maps

USA |  
| Search AWOS

Rocky Mountain States: Montana | Wyoming | Colorado | New Mexico

Complete weather reports: Colorado

Legend: KFNL = METAR available Follow your local AWOS on AV Mobile = METAR available on AV Mobile
Station Colorado Location Frequency Phone
KAKOFAA ID AKO, ASOS, KAKO 210953Z AUTO 26006KT 10SM FEW090 17/15 A2998 RMK AO2 SLP091 T01720150 Follow KAKO on AV Mobile COLORADO PLAINS REGIONAL 135.475 970-345-2320
KALSFAA ID ALS, ASOS, KALS 210952Z AUTO 00000KT 10SM CLR 09/06 A3023 RMK AO2 SLP143 T00940056 Follow KALS on AV Mobile SAN LUIS VALLEY REGIONAL 135.175 719-589-5669
KASEFAA ID ASE, ASOS, KASE 210953Z AUTO 18006KT 10SM BKN065 09/06 A3027 RMK AO2 SLP141 T00890061 Follow KASE on AV Mobile ASPEN-PITKIN COUNTY AIRPORT 120.400 970-925-9168
KBKFFAA ID BKF, KBKF 210858Z 24002KT 10SM BKN080 BKN140 BKN220 17/13 A3008 Follow KBKF on AV Mobile Aurora, Buckley Air Force Base Airport
K7BMFAA ID 7BM, AWOS-3, K7BM 210954Z AUTO 28013G21KT 10SM CLR 13/02 A3037 RMK AO2 Follow K7BM on AV Mobile Cottonwood Pass 132.050 303-512-4919
KBDUFAA ID BDU, AWOS-3, KBDU 210955Z AUTO 16003KT 10SM CLR 16/12 A3003 RMK AO2 Follow KBDU on AV Mobile Boulder Municipal Airport 118.825 303-541-9540
KAEJFAA ID AEJ, AWOS-3, KAEJ 210955Z AUTO 29010KT 10SM SCT100 13/05 A3025 RMK AO2 T01260047 Follow KAEJ on AV Mobile Central Colorado Regional Airport 132.925 719-395-2599
KITRFAA ID ITR, ASOS, KITR 210953Z AUTO 31008KT 10SM CLR 18/13 A2994 RMK AO2 SLP078 T01780128 Follow KITR on AV Mobile Kit Carson County Airport 135.225 719-346-7036
K1V6FAA ID 1V6, AWOS-3, K1V6 210950Z AUTO 00000KT 10SM CLR 20/11 A3005 RMK AO2 Follow K1V6 on AV Mobile CANON CITY 120.025
KAFFFAA ID AFF, KAFF 210858Z AUTO 36010KT 10SM SCT090 14/09 A3012 RMK AO2 SLP108 60000 T01420091 50001 Follow KAFF on AV Mobile Air Force Academy
KCOSFAA ID COS, ASOS, KCOS 210954Z 33009KT 10SM SCT110 17/09 A3011 RMK AO2 SLP100 T01720094 Follow KCOS on AV Mobile COLORADO SPRINGS MUNI 125.000 719-637-9696
KFLYFAA ID FLY, AWOS-3PT, KFLY 210955Z AUTO 35009KT 10SM BKN100 16/09 A3014 RMK AO2 T01580087 Follow KFLY on AV Mobile Meadowlake Airport, Peyton, CO 118.450 719-683-5371
KCCUFAA ID CCU, AWOS-3, KCCU 210956Z AUTO 23006KT 10SM BKN035 07/03 A3051 RMK AO2 Follow KCCU on AV Mobile Copper Mountain, Red Cliff Pass 118.075 970-968-1715
KCEZFAA ID CEZ, ASOS, KCEZ 210953Z AUTO 07004KT 10SM CLR 11/07 A3018 RMK AO2 SLP147 T01110072 $ Follow KCEZ on AV Mobile CORTEZ MONTEZUMA COUNTY AIRPORT 135.625 970-564-0193
KCAGFAA ID CAG, ASOS, KCAG 210953Z AUTO 20003KT 6SM RA BR OVC070 13/12 A3021 RMK AO2 RAB18 SLP170 P0003 T01280117 $ Follow KCAG on AV Mobile CRAIG MOFFAT AIRPORT 135.425 970-824-2373
KAJZFAA ID AJZ, AWOS-3, KAJZ 210915Z AUTO 03004KT 7SM CLR 16/09 A3014 RMK AO2 T01580088 Follow KAJZ on AV Mobile Blake Field Airport 134.000 970-874-3251
KDNRICAO ID KDNR Denver / Stapleton International, Co.
KAPAFAA ID APA, ASOS, KAPA 210953Z 12007KT 10SM CLR 14/11 A3008 RMK AO2 SLP118 T01440111 Follow KAPA on AV Mobile DENVER CENTENNIAL AIRPORT 120.300 303-706-9098
KDENFAA ID DEN, ASOS, KDEN 210953Z 20006KT 10SM FEW080 FEW130 16/13 A3004 RMK AO2 SLP091 T01610133 $ Follow KDEN on AV Mobile DENVER INTERNATIONAL AIRPORT 125.600 303-342-0838
KFTGFAA ID FTG, AWOS-3, KFTG 201647Z 03005KT 40SM SCT100 SCT150 25/12 A2998 Follow KFTG on AV Mobile Front Range Airport 119.025 303-261-9104
KBJCFAA ID BJC, AWOS-3, KBJC 210954Z AUTO 25005KT 10SM CLR 15/13 A3006 RMK AO2 Follow KBJC on AV Mobile Rocky Mountain Metro Airport 126.250 720-887-8067
K4V5ICAO ID K4V5 Durango Aviation Weather Reporting Station
KDROFAA ID DRO, ASOS, KDRO 210953Z AUTO 18003KT 10SM CLR 10/04 A3020 RMK AO2 SLP146 T01000039 Follow KDRO on AV Mobile DURANGO-LA PLATA COUNTY AIRPORT 120.625 970-259-3579
KEGEFAA ID EGE, AWOS-3, KEGE 210955Z AUTO 00000KT 10SM CLR 10/09 A3024 RMK AO1 Follow KEGE on AV Mobile Eagle County Regional 135.575 970-524-7386
CO90FAA ID CO90, ASOS, KAEJ 211005Z AUTO 26007KT 10SM CLR 13/05 A3025 RMK AO2 T01300045 Follow  on AV Mobile USAF Academy Bullseye Aux Airstrip 118.325 719-683-3346
K0COFAA ID 0CO, AWOS-3, K0CO 210955Z AUTO 30016G22KT 10SM CLR 02/02 A3052 RMK AO2 Follow K0CO on AV Mobile EMPIRE 134.325
KEIKFAA ID EIK, AWOS-3, KEIK 210955Z AUTO 00000KT 10SM CLR 15/13 A3003 RMK AO2 T01460127 Follow KEIK on AV Mobile Erie Municipal Airport 133.825 303-604-4339
KFCSFAA ID FCS, KFCS 210858Z AUTO 34010KT 10SM CLR 18/10 A3006 RMK AO2 SLP113 50007 Follow KFCS on AV Mobile Fort Carson
KFCLICAO ID KFCL Fort Collins Supplementary Aviation Weather Reporting Station
KFNLFAA ID FNL, AWOS-3, KFNL 210955Z AUTO 00000KT 10SM CLR 16/11 A3004 RMK AO1 Follow KFNL on AV Mobile Fort Collins/Loveland, Fort Collins-Loveland Municipal Airport 135.075 970-669-9187
KFMMFAA ID FMM, AWOS-3, KFMM 210955Z AUTO 29005KT 10SM CLR 16/12 A3000 RMK AO2 T01610119 PWINO Follow KFMM on AV Mobile Fort Morgan Municipal Airport 132.950 970-867-4823
KGNBFAA ID GNB, AWOS-1 Granby-Grand County Airport 119.925 970-887-1803
KGJTFAA ID GJT, ASOS, KGJT 210953Z AUTO 08003KT 10SM CLR 14/11 A3011 RMK AO2 SLP137 T01390106 Follow KGJT on AV Mobile GRAND JUNCTION WALKER FIELD 118.550 970-245-7881
KGXYFAA ID GXY, AWOS-3, KGXY 210955Z AUTO 00000KT 10SM CLR 14/10 A3002 RMK AO1 Follow KGXY on AV Mobile Greeley, Greeley-Weld County Airport 135.175 970-352-3511
K2V9ICAO ID K2V9 Gunnison Aviation Weather Reporting Station
KGUCFAA ID GUC, AWOS-3, KGUC 210955Z AUTO 01004KT 10SM CLR 08/02 A3031 RMK AO1 Follow KGUC on AV Mobile Gunnison, Gunnison-Crested Butte Regional Airport 135.075 970-641-3240
KHDNFAA ID HDN, AWOS-3, KHDN 210955Z AUTO 12004KT 10SM SCT065 OVC110 11/08 A3021 RMK AO1 Follow KHDN on AV Mobile Hayden, Yampa Valley Airport 119.275 970-276-3690
KHEQFAA ID HEQ, AWOS-3, KHEQ 150235Z AUTO 28016KT 7SM +TSRA SCT008 BKN018 OVC025 20/16 A2999 RMK AO2 LTG DSNT ALQS Follow KHEQ on AV Mobile Holyoke Airport 119.275 970-854-3679
K20VFAA ID 20V, AWOS-3, K20V 210957Z AUTO 00000KT 10SM BKN065 OVC085 10/08 A3026 RMK AO2 Follow K20V on AV Mobile Kremmling, Mc Elroy Airfield 118.425 970-724-9659
KLHXFAA ID LHX, ASOS, KLHX 210953Z AUTO 30006KT 10SM CLR 20/13 A2994 RMK AO2 SLP070 T02000128 Follow KLHX on AV Mobile LA JUNTA MUNICIPAL AIRPORT 135.525 719-384-5961
KVTPFAA ID VTP, AWOS-3, KVTP 201307Z AUTO 20012G23KT 160V240 10SM SCT080 BKN100 11/06 A3028 RMK AO2 Follow KVTP on AV Mobile La Veta Mountain, La Veta Pass 119.925 719-587-3120
KLAAFAA ID LAA, ASOS, KLAA 210953Z AUTO 36007KT 10SM CLR 20/13 A2987 RMK AO2 SLP053 T02000133 Follow KLAA on AV Mobile LAMAR MUNICIPAL AIRPORT 135.625 719-336-3854
KLXVFAA ID LXV, ASOS, KLXV 210953Z AUTO 35005KT 10SM CLR 04/02 A3038 RMK AO2 SLP129 T00440022 Follow KLXV on AV Mobile LEADVILLE LAKE CO 118.375 719-486-2735
KLICFAA ID LIC, ASOS, KLIC 210955Z AUTO 31004KT 10SM CLR 15/13 A3003 RMK AO2 LTG DSNT NE SLP089 T01500133 Follow KLIC on AV Mobile LIMON MUNICIPAL AIRPORT 121.125 719-775-0515
KLMOFAA ID LMO, AWOS-3, KLMO 210954Z AUTO 30003KT 7SM CLR 15/12 A3004 RMK AO2 T01460118 Follow KLMO on AV Mobile Vance Brand Airport 120.000 303-684-7545
KEEOFAA ID EEO, ASOS, KEEO 210953Z AUTO 00000KT 10SM -RA BKN060 OVC085 13/11 A3021 RMK AO2 RAB34 SLP156 P0001 T01330111 Follow KEEO on AV Mobile MEEKER AIRPORT 135.525 970-878-5036
KMYPFAA ID MYP, AWOS-3, KMYP 210944Z AUTO 28021KT 10SM CLR 03/02 A3060 RMK AO2 Follow KMYP on AV Mobile Salida Mountain, Monarch Pass 124.175 719-539-4436
KMTJFAA ID MTJ, ASOS, KMTJ 210953Z AUTO 13007KT 10SM CLR 13/09 A3019 RMK AO2 SLP152 T01280089 Follow KMTJ on AV Mobile MONTROSE REGIONAL AIRPORT 135.225 970-249-1534
KMNHFAA ID MNH, AWOS-3, KMNH 210953Z AUTO 27004KT 10SM SCT095 11/08 A3014 RMK AO2 Follow KMNH on AV Mobile Elbert Mountain, Monument Pass 134.375 303-648-3479
K3MWFAA ID 3MW, AWOS-3, K3MW 211630Z AUTO RMK AO2 TSNO PWINO Follow K3MW on AV Mobile Mount Werner 127.125 970-871-5640
KCRVICAO ID KCRV Nederland Mountain, Corona Pass
KAIBFAA ID AIB, AWOS-3, KAIB 210955Z AUTO 13010KT 10SM CLR 13/07 A3022 RMK AO2 Follow KAIB on AV Mobile Hopkins Field Airport 132.525 970-864-2325
KPSOFAA ID PSO, AWOS-3, KPSO 210955Z AUTO 00000KT 10SM 09/05 A3027 RMK AO2 T00870046 Follow KPSO on AV Mobile Stevens Field Airport 127.175 970-731-0365
KPEFICAO ID KPEF Peterson Air Force Base
KPUXICAO ID KPUX Pueblo NEXRAD
KPUBFAA ID PUB, ASOS, KPUB 210953Z AUTO 00000KT 10SM FEW120 20/11 A2999 RMK AO2 SLP081 T02000111 Follow KPUB on AV Mobile PUEBLO MEMORIAL AIRPORT 125.250 719-948-2803
K1V1ICAO ID K1V1 Rifle Aviation Weather Reporting Station
KRILFAA ID RIL, ASOS, KRIL 210953Z AUTO 09003KT 10SM BKN095 14/11 A3015 RMK AO2 SLP145 T01390111 Follow KRIL on AV Mobile RIFLE GARFIELD COUNTY RGNL 135.275 970-625-2206
K04VFAA ID 04V, AWOS-3, K04V 210955Z AUTO 33006G14KT 10SM SCT075 12/05 A3027 RMK AO2 PWINO Follow K04V on AV Mobile Saguache, Saguache Municipal Airport 118.625 719-655-2229
KS29ICAO ID KS29 Salida
KANKFAA ID ANK, AWOS-3, KANK 210955Z AUTO 27008KT 10SM CLR 16/04 A3029 RMK AO1 T01640042 Follow KANK on AV Mobile Harriet Alexander Field Airport 133.850 719-539-5268
KSPDICAO ID KSPD, KSPD 210956Z AUTO 21008KT 21/15 A2993 RMK AO1 SLP058 T02060150 Follow KSPD on AV Mobile SPRINGFIELD COMANCHE NATL
KSBSFAA ID SBS, AWOS-3, KSBS 210954Z AUTO 00000KT 10SM SCT060 SCT100 09/08 A3022 RMK AO1 T00850075 Follow KSBS on AV Mobile Steamboat Springs 118.325 970-879-7794
KSTKFAA ID STK, AWOS-3, KSTK 210950Z AUTO 33004KT 10SM SCT090 SCT120 20/16 A2993 RMK AO2 Follow KSTK on AV Mobile Sterling Municipal Airport 118.525 970-526-3009
K5SMFAA ID 5SM, AWOS-3, K5SM 210957Z AUTO 00000KT 10SM CLR 06/05 A3045 RMK AO2 LTG DSNT NW Follow K5SM on AV Mobile Sunlight 126.075 970-384-3380
KTEXFAA ID TEX, AWOS-3, KTEX 210937Z AUTO 12004KT 10SM CLR 09/06 A3038 RMK AO2 Follow KTEX on AV Mobile Telluride, Telluride Regional Airport 118.325 970-728-1534
KTADFAA ID TAD, ASOS, KTAD 210954Z AUTO 27005KT 10SM FEW095 17/07 A3007 RMK AO2 SLP092 T01720072 Follow KTAD on AV Mobile Trinidad, Perry Stokes Airport 119.025 719-845-1156
K33VFAA ID 33V, AWOS-3, K33V 210955Z AUTO 13004KT 10SM OVC110 07/06 A3027 RMK AO2 Follow K33V on AV Mobile WALDEN 118.625 970-723-4513
4V1FAA ID 4V1, AWOS-3, KAEJ 211005Z AUTO 26007KT 10SM CLR 13/05 A3025 RMK AO2 T01300045 Follow  on AV Mobile Spanish Peaks Airfield 123.600 719-738-1053
K4BMFAA ID 4BM, AWOS-3, K4BM 210952Z AUTO 27006KT 10SM CLR 08/01 A3047 RMK AO2 Follow K4BM on AV Mobile Wilkerson Pass 132.3 303-512-4418
KC96ICAO ID KC96 Winter Park Resort
KCPWFAA ID CPW, AWOS-3, KCPW 182241Z AUTO 26014G21KT 7SM TSRA SCT014 BKN027 OVC037 02/01 A3034 RMK AO2 P0001 LTG DSNT ALQS Follow KCPW on AV Mobile Pagosa Springs, Wolf Creek Pass 121.125 970-264-2180
K2V5FAA ID 2V5, AWOS-3, K2V5 210955Z AUTO 34011G15KT 10SM 21/14 A2991 RMK AO2 T02080143 Follow K2V5 on AV Mobile Wray Municipal Airport 118.250 970-332-5930

Click on the AV Mobile icon AV Mobile icon by any station to follow that AWOS feed on AirportView.net Mobile.

Legend: Commercial service airport with AWOS Commercial Airport AWOSNon-Commercial service airport with AWOS Non-Commercial Airport AWOS
Airport AWOS - Click symbol for weather report Fort Morgan Municipal Airport KFMM 210955Z AUTO 29005KT 10SM CLR 16/12 A3000 RMK AO2 T01610119 PWINO Hopkins Field Airport KAIB 210955Z AUTO 13010KT 10SM CLR 13/07 A3022 RMK AO2 Telluride, Telluride Regional Airport KTEX 210937Z AUTO 12004KT 10SM CLR 09/06 A3038 RMK AO2 Greeley, Greeley-Weld County Airport KGXY 210955Z AUTO 00000KT 10SM CLR 14/10 A3002 RMK AO1 Front Range Airport KFTG 201647Z 03005KT 40SM SCT100 SCT150 25/12 A2998 Rocky Mountain Metro Airport KBJC 210954Z AUTO 25005KT 10SM CLR 15/13 A3006 RMK AO2 DENVER CENTENNIAL AIRPORT KAPA 210953Z 12007KT 10SM CLR 14/11 A3008 RMK AO2 SLP118 T01440111 DENVER INTERNATIONAL AIRPORT KDEN 210953Z 20006KT 10SM FEW080 FEW130 16/13 A3004 RMK AO2 SLP091 T01610133 $ Fort Collins/Loveland, Fort Collins-Loveland Municipal Airport KFNL 210955Z AUTO 00000KT 10SM CLR 16/11 A3004 RMK AO1 Boulder Municipal Airport KBDU 210955Z AUTO 16003KT 10SM CLR 16/12 A3003 RMK AO2 Vance Brand Airport KLMO 210954Z AUTO 30003KT 7SM CLR 15/12 A3004 RMK AO2 T01460118 Sterling Municipal Airport KSTK 210950Z AUTO 33004KT 10SM SCT090 SCT120 20/16 A2993 RMK AO2 Holyoke Airport KHEQ 150235Z AUTO 28016KT 7SM +TSRA SCT008 BKN018 OVC025 20/16 A2999 RMK AO2 LTG DSNT ALQS COLORADO PLAINS REGIONAL KAKO 210953Z AUTO 26006KT 10SM FEW090 17/15 A2998 RMK AO2 SLP091 T01720150 Kit Carson County Airport KITR 210953Z AUTO 31008KT 10SM CLR 18/13 A2994 RMK AO2 SLP078 T01780128 LIMON MUNICIPAL AIRPORT KLIC 210955Z AUTO 31004KT 10SM CLR 15/13 A3003 RMK AO2 LTG DSNT NE SLP089 T01500133 COLORADO SPRINGS MUNI KCOS 210954Z 33009KT 10SM SCT110 17/09 A3011 RMK AO2 SLP100 T01720094 LAMAR MUNICIPAL AIRPORT KLAA 210953Z AUTO 36007KT 10SM CLR 20/13 A2987 RMK AO2 SLP053 T02000133 LA JUNTA MUNICIPAL AIRPORT KLHX 210953Z AUTO 30006KT 10SM CLR 20/13 A2994 RMK AO2 SLP070 T02000128 Trinidad, Perry Stokes Airport KTAD 210954Z AUTO 27005KT 10SM FEW095 17/07 A3007 RMK AO2 SLP092 T01720072 PUEBLO MEMORIAL AIRPORT KPUB 210953Z AUTO 00000KT 10SM FEW120 20/11 A2999 RMK AO2 SLP081 T02000111 CANON CITY 1V6 SAN LUIS VALLEY REGIONAL KALS 210952Z AUTO 00000KT 10SM CLR 09/06 A3023 RMK AO2 SLP143 T00940056 Saguache, Saguache Municipal Airport K04V 210955Z AUTO 33006G14KT 10SM SCT075 12/05 A3027 RMK AO2 PWINO Granby-Grand County Airport KGNB WALDEN 33V Steamboat Springs KSBS 210954Z AUTO 00000KT 10SM SCT060 SCT100 09/08 A3022 RMK AO1 T00850075 Hayden, Yampa Valley Airport KHDN 210955Z AUTO 12004KT 10SM SCT065 OVC110 11/08 A3021 RMK AO1 Kremmling, Mc Elroy Airfield K20V 210957Z AUTO 00000KT 10SM BKN065 OVC085 10/08 A3026 RMK AO2 LEADVILLE LAKE CO KLXV 210953Z AUTO 35005KT 10SM CLR 04/02 A3038 RMK AO2 SLP129 T00440022 Eagle County Regional KEGE 210955Z AUTO 00000KT 10SM CLR 10/09 A3024 RMK AO1 CRAIG MOFFAT AIRPORT KCAG 210953Z AUTO 20003KT 6SM RA BR OVC070 13/12 A3021 RMK AO2 RAB18 SLP170 P0003 T01280117 $ MEEKER AIRPORT KEEO 210953Z AUTO 00000KT 10SM -RA BKN060 OVC085 13/11 A3021 RMK AO2 RAB34 SLP156 P0001 T01330111 ASPEN-PITKIN COUNTY AIRPORT KASE 210953Z AUTO 18006KT 10SM BKN065 09/06 A3027 RMK AO2 SLP141 T00890061 Gunnison, Gunnison-Crested Butte Regional Airport KGUC 210955Z AUTO 01004KT 10SM CLR 08/02 A3031 RMK AO1 DURANGO-LA PLATA COUNTY AIRPORT  KDRO 210953Z AUTO 18003KT 10SM CLR 10/04 A3020 RMK AO2 SLP146 T01000039 Stevens Field Airport KPSO 210955Z AUTO 00000KT 10SM 09/05 A3027 RMK AO2 T00870046 CORTEZ MONTEZUMA COUNTY AIRPORT  KCEZ 210953Z AUTO 07004KT 10SM CLR 11/07 A3018 RMK AO2 SLP147 T01110072 $ MONTROSE REGIONAL AIRPORT KMTJ 210953Z AUTO 13007KT 10SM CLR 13/09 A3019 RMK AO2 SLP152 T01280089 RIFLE GARFIELD COUNTY RGNL KRIL 210953Z AUTO 09003KT 10SM BKN095 14/11 A3015 RMK AO2 SLP145 T01390111 GRAND JUNCTION WALKER FIELD KGJT 210953Z AUTO 08003KT 10SM CLR 14/11 A3011 RMK AO2 SLP137 T01390106 Blake Field Airport KAJZ 210915Z AUTO 03004KT 7SM CLR 16/09 A3014 RMK AO2 T01580088 Central Colorado Regional Airport KAEJ 210955Z AUTO 29010KT 10SM SCT100 13/05 A3025 RMK AO2 T01260047 Harriet Alexander Field Airport KANK 210955Z AUTO 27008KT 10SM CLR 16/04 A3029 RMK AO1 T01640042 Erie Municipal Airport KEIK 210955Z AUTO 00000KT 10SM CLR 15/13 A3003 RMK AO2 T01460127 Wray Municipal Airport K2V5 210955Z AUTO 34011G15KT 10SM 21/14 A2991 RMK AO2 T02080143
Legend: High Mountain AWOS Mountain Pass AWOS
Mountain Pass AWOS - Click symbol for weather report Pagosa Springs, Wolf Creek Pass KCPW 182241Z AUTO 26014G21KT 7SM TSRA SCT014 BKN027 OVC037 02/01 A3034 RMK AO2 P0001 LTG DSNT ALQS Saguache, Saguache Municipal Airport K04V 210955Z AUTO 33006G14KT 10SM SCT075 12/05 A3027 RMK AO2 PWINO Kremmling, Mc Elroy Airfield K20V 210957Z AUTO 00000KT 10SM BKN065 OVC085 10/08 A3026 RMK AO2 La Veta Mountain, La Veta Pass KVTP 201307Z AUTO 20012G23KT 160V240 10SM SCT080 BKN100 11/06 A3028 RMK AO2 Salida Mountain, Monarch Pass KMYP 210944Z AUTO 28021KT 10SM CLR 03/02 A3060 RMK AO2 Cottonwood Pass K7BM 210954Z AUTO 28013G21KT 10SM CLR 13/02 A3037 RMK AO2 Elbert Mountain, Monument Pass KMNH 210953Z AUTO 27004KT 10SM SCT095 11/08 A3014 RMK AO2 Wilkerson Pass K4BM 210952Z AUTO 27006KT 10SM CLR 08/01 A3047 RMK AO2 Copper Mountain, Red Cliff Pass KCCU 210956Z AUTO 23006KT 10SM BKN035 07/03 A3051 RMK AO2 EMPIRE 0CO Sunlight K5SM 210957Z AUTO 00000KT 10SM CLR 06/05 A3045 RMK AO2 LTG DSNT NW Mount Werner K3MW 211630Z AUTO RMK AO2 TSNO PWINO
Garmin aera 796 $1999 at Avionics Specialists LLC
Bose A20 Aviation Headsets $995 at Avionics Specialists LLC